My Meet Scores
Top100 | Top Teams | Upcoming Meets | Completed Meets | Latest | Add Scores | Help| Bookmark and Share
Kinetic Kids LLC - MyMeetScores.com
Kinetic Kids LLC
State Website
CT
Hosted Meets
Start Meet Gymnasts
2018-01-19 Kinetic Kids Invitational
2017-11-10 2017 Phs Turkey Tumble
2017-05-06 2017 Connecticut XS State Championships 361
2017-03-25 2017 Connecticut Level 3 State Cup 317
2017-03-25 2017 Connecticut Level 6 Championships 172
2017-01-20 Kinetic Kids Invitational
2016-11-11 2016 Turkey Tumble
2016-04-02 2016 Connecticut Level 6 States & Level 3 State Cup 427
2016-01-22 Kinetic Kids
2015-11-06 2015 PHS Turkey Tumble
2015-04-11 USA Gymnastics Level 3 & 6 State Championshi
2015-01-23 Kinetic Kids Invitational
2014-11-07 2014 PHS Turkey Tumble
2014-01-25 Kinetic Kids Invitational
2013-11-08 PHS Turkey Tumble
2012-11-10 2012 Turkey Tumble 300
2012-03-23 Kinetic Kids Invitational
2011-11-11 2011 Turkey Tumble
2011-03-25 Kinetic Kids Invitational
2010-11-12 2010 Turkey Tumble
2010-03-21 2010 Connecticut Level 9, 10 State Championships 70
2008-11-15 Turkey Tumble 2008 350
Gymnasts
Personal Bests
Name Level Latest Meet Vault Bars Beam Floor AA
Harter, Juliana XS 2017-05-20 9.500 9.675 9.650 9.700 37.750
Kenny, Allyson XD 2017-05-20 9.200 8.900 9.100 9.350 36.125
Dyer, Anna XB 2017-05-13 9.350 9.250 9.050 8.925 36.575
Hoedl, Emily XB 2017-05-13 9.350 9.400 9.300 9.100 36.900
Quill, Liliana XB 2017-05-13 9.275 9.300 9.100 9.350 36.850
Argonese, Gabriella XS 2017-05-06 9.050 9.350 9.625 9.350 36.925
Buturla, Angelina XS 2017-05-06 8.900 9.100 9.450 9.075 35.775
Formato, Scarlett XS 2017-05-06 9.550 9.600 9.450 9.250 37.300
Kaman, Marissa XS 2017-05-06 9.500 9.450 9.450 9.200 36.900
Sand, Isabella XS 2017-05-06 9.000 9.350 8.900 9.325 36.550
Scioscia, Madyson XS 2017-05-06 9.450 9.650 9.450 9.150 37.350
Brandt, Paige XS 2017-04-29 9.600 9.650 9.550 9.650 37.600
Dilulio, Marissa XP 2017-04-29 9.000 8.800 9.050 9.425 35.875
Fernandez, Gabriella XS 2017-04-29 9.400 9.450 9.650 9.700 37.250
Golden, Jillian XS 2017-04-29 9.100 9.700 9.575 9.700 37.400
Kritemeyer, Sarah XS 2017-04-29 9.100 9.650 9.550 9.350 36.500
Markward, Julia XS 2017-04-29 9.375 9.375 9.600 9.500 37.200
McKernan, Ekaterina XS 2017-04-29 9.200 9.250 9.450 9.450 36.200
Mugavin, Skylar XS 2017-04-29 9.300 9.850 9.600 9.800 37.750
Scioscia, Juliana XP 2017-04-29 9.050 8.825 9.400 9.250 35.725
Smith, Meghan XS 2017-04-29 8.850 9.650 9.350 9.500 36.850
Clark, Madison 9 2017-04-07 9.050 9.250 9.250 8.900 35.750
Caron, Sophie AllLevels 2017-03-25 9.175 9.750 9.125 9.275 37.325
Esteves, Julia 6 2017-03-25 8.800 9.275 9.000 8.900 35.775
Fortier, Jordyn 3 2017-03-25 9.000 9.200 8.400 7.750 33.850
Gutheil, Brooke AllLevels 2017-03-25 9.000 9.325 9.350 8.950 36.300
Hayden, Emma 6 2017-03-25 9.000 8.575 9.075 9.100 35.750
Moramarco, Sophia 3 2017-03-25 9.250 7.100 8.225 8.600 32.475
Nugai, Emma 6 2017-03-25 9.450 9.100 9.150 9.050 36.450
Sander, Emma AllLevels 2017-03-25 9.050 9.625 9.050 8.800 36.375
Baktis, Emily 9 2017-03-18 9.550 9.000 9.050 9.350 36.950
Berry, Fallon 8 2017-03-18 9.100 8.025 8.900 9.000 34.600
Clark, Madison 9 2017-03-18 8.850 9.100 9.050 9.200 35.175
Dugan, AShleigh 7 2017-03-18 9.650 8.200 9.150 9.250 36.050
Guillet, Ana 7 2017-03-18 9.350 8.250 9.150 8.950 35.000
Jannott, Maddie 8 2017-03-18 8.700 8.150 8.800 8.900 34.200
Karp, Alaina 7 2017-03-18 9.400 8.875 9.225 9.050 36.375
Nugai, Jillian 7 2017-03-18 9.200 8.675 9.550 9.275 35.675
Ouellette, Carissa XP 2017-03-18 9.200 8.350 9.225 8.850 35.600
Thompson, Samantha 7 2017-03-18 8.900 8.750 9.000 9.000 35.400
Kennedy, Katie XR 2017-03-03 8.800 9.500 8.900 9.100 35.800
Reininger, Lexie XR 2017-03-03 8.400 8.800 8.500 9.050 34.750
Troy, Briana XR 2017-03-03 9.000 8.700 9.100 9.000 35.700
Granger, Lanelle XS 2017-03-02 9.350 9.350 9.100 9.100 36.650
Baktis, Emily 9 2017-02-23 9.175 8.300 8.500 8.800 33.800
Jannott, Maddie 8 2017-02-23 8.550 8.800 8.750 8.850 34.400
Alagno, Lauryn AllLevels 2017-02-04 8.750 8.050 8.950 8.500 33.350
Caron, Ella AllLevels 2017-02-04 9.350 9.250 9.200 9.200 36.100
Chagnon, Sadie AllLevels 2017-02-04 8.850 8.300 8.950 8.675 34.400
Clifford, Molly AllLevels 2017-02-04 9.500 8.900 9.000 8.850 35.500
Matos, Allie AllLevels 2017-02-04 8.950 9.200 9.025 8.700 35.325
Rodriguez, Sarah AllLevels 2017-02-04 9.100 7.100 8.200 8.450 31.650
Taylor, Ava AllLevels 2017-02-04 9.100 9.000 9.100 8.450 34.200
Thomas, Isabella AllLevels 2017-02-04 9.200 8.450 8.900 8.825 34.900
Poynton, Stephanie 8 2017-01-13 9.400 9.150 9.250 9.400 36.325
Tomasheski, Katie 5 2017-01-13 9.200 7.500 8.450 8.800 32.200
Chasse, Jenna 8 2016-12-02 9.075 9.400 8.950 9.300 36.350
Orlando, McKenna 5 2016-12-02 8.850 9.275 9.200 8.850 34.850
Bakis, Emily 9 2016-11-18 7.750 5.100 5.500 8.550 26.900
KennaOrlando, Mc AllLevels 2016-11-05 8.750 8.600 7.950 8.200 33.500
Villano, Giada XB 2016-05-15 8.700 8.950 9.150 8.900 35.250
Bell, Molly XS 2016-04-30 9.350 9.325 9.400 9.400 37.400
Kaether, Kayla XS 2016-04-30 8.800 9.450 9.800 9.000 37.050
Guarino, Taylor 3 2016-04-02 9.000 8.100 8.800 8.400 34.100
Lowell, Anna 3 2016-04-02 8.600 8.350 7.100 7.350 30.250
Montero, Anabelle 7 2016-03-19 8.450 6.550 8.850 9.050 31.850
Poynton, Kristina 7 2016-03-19 9.525 9.000 9.050 9.025 35.975
Guerin, Jenna XD 2016-02-26 8.800 8.300 9.400 9.000 34.600
Wilson, Sherry 4 2016-02-20 9.400 8.350 8.700 8.350 32.475
Montero, Annabelle 7 2016-01-15 9.200 8.500 9.700 9.475 36.550
Fonte, Emily XB 2015-12-11 9.250 8.800 9.600 8.800 36.200
Grice, Keira 3 2015-11-21 8.450 7.700 7.450 7.150 30.750
Constantinou, Christina 7 2015-03-28 9.350 8.500 8.950 9.300 35.000
Eschmann, Sofia 8 2015-03-28 9.000 9.300 8.900 9.050 34.150
Muller, Megan 8 2015-03-28 9.000 9.200 8.600 9.150 35.300
Batkis, Emily 8 2015-02-20 8.850 8.000 8.725 8.950 34.325
Jannott, Anna 8 2015-02-20 8.800 8.300 8.850 8.800 34.500
Canonico, Victoria 4 2014-12-12 9.300 8.300 8.750 8.700 34.150
Cote, Erin 5 2014-12-12 8.800 8.600 8.400 8.700 33.800
Maisano, Julia 6 2014-12-12 8.850 9.200 8.675 9.100 35.825
Wallace, Madeline 4 2014-12-12 9.300 8.700 8.850 8.800 34.750
Weiss, Sydney 4 2014-12-12 9.100 8.750 8.450 8.450 34.100
Abraham, Priya XS 2014-05-17 9.450 9.650 9.450 9.400 36.275
Congiu, Laura XG 2014-05-17 8.825 9.175 8.450 9.350 35.525
Dagan, Alexandra XS 2014-05-17 9.050 9.000 8.550 8.650 35.050
Rinaldi, Rebecca XS 2014-05-17 8.250 8.575 9.000 8.350 34.075
Slupatchuk, Madisun XG 2014-05-17 8.550 9.300 8.600 9.325 35.150
Dolyak, Kate 3 2014-03-29 9.450 8.250 8.350 8.650 34.700
Furr, Kaitlyn 6 2014-03-29 8.700 9.300 9.000 9.150 35.300
Gatzendorfer, Victoria 6 2014-03-29 8.850 9.000 9.350 9.450 36.650
Maduri, Jenna 3 2014-03-29 9.000 8.100 8.300 7.750 33.150
Shouse, Emily 8 2014-03-22 9.050 7.350 8.500 8.725 33.000
Wilson, Elisha 9 2014-03-22 8.950 7.300 8.250 9.000 32.775
Gil, Ansley XG 2014-02-21 9.200 9.250 9.150 9.300 36.300
Greco, Olivia XG 2014-02-21 8.250 9.500 8.675 8.800 35.225
Tavoletti, Catherine 4 2014-02-08 8.700 8.150 8.100 8.350 32.450
Thammana, Sarvika 4 2014-02-08 8.900 8.400 8.750 9.050 33.650
LaRocque, Emily 5 2013-12-06 8.175 6.400 8.625 9.000 31.650
Avery, Camryn PN 2013-04-19 9.050 8.900 8.850 9.000 35.800
Gyba, Emily PI 2013-04-19 8.700 9.125 8.400 9.200 34.900
Cvanciger, Grace 9 2013-04-12 9.300 9.075 9.325 9.300 35.525
French, Meghan 9 2013-04-12 9.150 7.600 8.650 9.125 34.000
Abdul-Qader, Kokeb 7 2013-04-06 9.000 8.600 8.550 9.300 35.225
Acosta, Janessa 7 2013-04-06 8.875 8.650 8.800 8.900 35.200
Ark, Lauren 7 2013-04-06 8.875 8.650 8.800 8.900 35.200
Barnes, Rylee 7 2013-04-06 9.000 8.600 8.550 9.300 35.225
Berry, Fallon 7 2013-04-06 8.875 8.650 8.800 8.900 35.200
Cortˇs (EDOMEX), Michelle 7 2013-04-06 8.875 8.650 8.800 8.900 35.200
Farrar, Diana 7 2013-04-06 8.875 8.650 8.800 8.900 35.200
Ferland, Morgan 7 2013-04-06 9.000 8.600 8.550 9.300 35.225
Garcia (EDOMEX), Sandra 7 2013-04-06 9.000 8.600 8.550 9.300 35.225
Helms, Remi 7 2013-04-06 8.875 8.650 8.800 8.900 35.200
Hummell, Taylee 7 2013-04-06 9.000 8.600 8.550 9.300 35.225
Jensen, Melody 7 2013-04-06 8.875 8.650 8.800 8.900 35.200
Johnson, Annika 7 2013-04-06 9.000 8.600 8.550 9.300 35.225
Kirkland, Kayla 7 2013-04-06 8.875 8.650 8.800 8.900 35.200
Middleton, Layla 7 2013-04-06 9.000 8.600 8.550 9.300 35.225
Mills, Lexi 7 2013-04-06 8.875 8.650 8.800 8.900 35.200
Morris, Attiyah 7 2013-04-06 8.875 8.650 8.800 8.900 35.200
Peter, Kasey 7 2013-04-06 8.875 8.650 8.800 8.900 35.200
Schexnayder, Zoe 7 2013-04-06 9.000 8.600 8.550 9.300 35.225
Shouse, Emily 7 2013-04-06 9.000 8.600 8.550 9.300 35.225
Simon, Ruthanne 7 2013-04-06 9.000 8.600 8.550 9.300 35.225
Tarvit, Tara 7 2013-04-06 9.000 8.600 8.550 9.300 35.225
Webb, Abigail 7 2013-04-06 9.000 8.600 8.550 9.300 35.225
Wright, Emery 7 2013-04-06 8.875 8.650 8.800 8.900 35.200
Dube, Steffanie PN 2013-02-22 9.000 8.175 8.300 9.300 34.775
Eastlake, Amanda PN 2013-02-22 9.000 8.175 8.300 9.300 34.775
Fryz, Natalia PN 2013-02-22 8.800 8.750 8.800 9.000 35.350
Lee, Kelsey PN 2013-02-22 9.000 8.175 8.300 9.300 34.775
Madge, Emily PN 2013-02-22 9.000 8.175 8.300 9.300 34.775
Taylor, Shea PN 2013-02-22 9.000 8.175 8.300 9.300 34.775
Walker, Maredeth PN 2013-02-22 9.000 8.175 8.300 9.300 34.775
Weinstein, Alina PN 2013-02-22 9.000 8.175 8.300 9.300 34.775
Zinnie, Caitlin PN 2013-02-22 9.000 8.175 8.300 9.300 34.775
Ross, Rebekah 7 2013-01-18 8.850 9.050 8.875 8.850 35.625
Berger, Jacquelin 6 2012-11-10 8.650 9.550 8.650 9.200 36.050
Clow, Caitlyn 4 2012-11-10 8.750 8.200 8.000 8.550 33.100
Fish, Savannah 5 2012-11-10 8.800 8.000 8.425 8.600 32.400
Forcier, Emily PI 2012-11-10 8.150 7.200 6.700 7.700 29.750
Luff, Lia 4 2012-11-10 8.900 8.150 8.000 9.000 34.050
Profeta, Allison 9 2012-11-10 8.475 6.425 7.500 7.800 30.200
Reelick, Lindsey 5 2012-11-10 8.300 7.600 7.550 8.600 31.000
Sorrentino, Emily 4 2012-11-10 9.375 8.350 7.750 8.700 33.300
Veatch, Emily 4 2012-11-10 8.600 6.500 7.850 7.450 30.400
Slattberg, Emily 4 2012-10-20 8.800 7.850 8.350 8.650 33.650
James, Maya 7 2012-01-13 9.175 8.800 8.650 8.800 34.275
Pretka, Alyssa 9 2012-01-13 9.100 8.600 8.900 9.100 34.525
Rinaldi, Jenna 9 2012-01-13 9.250 8.800 8.450 9.250 35.500
Scarfo, Kaleigh 7 2012-01-13 8.400 7.850 8.900 8.425 33.175
Benczkowski, Caroline 4 2011-04-14 8.925 8.850 8.525 8.650 34.950
Constaninou, Christina 4 2011-04-14 8.550 8.000 8.250 8.350 33.150
Kelly, Taylor 5 2011-04-14 7.900 5.500 7.950 7.500 28.350
Knies, Jillian 4 2011-04-14 8.400 5.000 7.450 8.100 28.950
Maloney, Madeline 4 2011-04-14 7.600 8.750 8.000 8.200 32.550
Reelick, Jaclyn 6 2011-04-14 8.350 8.350 8.850 8.350 33.450
Ross, Lindsey 5 2011-04-14 8.850 8.400 8.650 8.900 34.750
Ross, Megan 4 2011-04-14 9.000 6.900 7.250 7.500 30.650
Sepanek, Leanne 4 2011-04-14 9.000 8.400 8.000 7.500 32.900
Santopietro, Kaleigh 7 2011-04-02 8.900 8.550 8.650 8.500 34.475
Sapack, Megan 7 2011-04-02 8.750 8.050 9.000 9.025 33.350
Wallace, Gwendolyn 7 2011-04-02 9.250 8.350 7.650 8.625 33.525
Whelan, Elizabeth 8 2011-04-02 8.800 8.150 8.800 8.850 33.650
Williams, Isabel 7 2011-04-02 9.350 8.800 8.375 8.800 34.075
Wood, Laura 7 2011-04-02 8.500 8.100 9.275 8.575 31.775
Cvancigar, Grace 9 2011-03-27 9.075 7.100 7.150 8.550 31.875
Larsen, Emma 5 2011-01-14 0.000 6.400 7.700 7.125 21.225
Rinaldi, Stephanie 8 2011-01-14 8.900 7.300 9.125 8.450 32.450
Wisniewski, Emily 5 2011-01-14 7.850 8.400 8.550 8.300 32.650
Wisniewski, Sarah 5 2011-01-14 7.200 8.450 8.750 8.250 32.300
DeGiacomo, Sydney 6 2010-12-11 8.500 6.750 8.250 8.000 30.500
Hawley, Elizabeth 6 2010-12-11 8.750 8.200 8.850 4.850 30.350
Scarfo, Kaleigh 6 2010-12-03 8.850 6.800 7.600 8.250 29.200
Horn, Jessica 8 2010-03-27 8.750 9.200 8.600 9.500 35.750
Martin, Willow 7 2010-03-27 9.625 9.000 9.400 9.400 37.425
Mitchell, Allison 8 2010-03-27 8.650 8.100 8.900 8.750 34.400
Niez Charest, Alex 7 2010-03-27 9.425 7.400 8.600 8.650 33.250
Wiener, Kathy 8 2010-03-27 9.250 8.200 9.100 8.700 34.200
Berger, Jacquelin 4 2010-01-27 8.900 7.800 8.200 8.650 33.550
DeGiacomo, Sydney 5 2010-01-27 8.200 8.700 8.800 8.800 34.500
DiLulio, Marissa 4 2010-01-27 8.925 7.000 6.750 8.200 30.875
Eschmann, Sofia 5 2010-01-27 8.450 8.750 8.500 8.050 33.100
Hawley, Elizabeth 5 2010-01-27 8.400 9.200 9.200 9.075 35.875
Kelly, Taylor 4 2010-01-27 9.000 7.300 8.250 8.200 32.750
Maisano, Julia 4 2010-01-27 9.025 7.750 7.750 8.450 32.975
Muller, Megan 5 2010-01-27 8.800 9.300 9.350 9.325 36.475
Ross, Lindsey 4 2010-01-27 8.850 5.500 7.450 7.700 29.500
Ross, Rebekah 4 2010-01-27 9.450 8.350 7.750 8.800 34.350
Shiffman, Emily 5 2010-01-27 7.750 9.100 9.150 8.575 34.575
Blake, Jamie 5 2009-02-20 8.350 9.050 8.575 8.800 34.525
Dandrea, Kyle 6 2009-02-20 8.600 8.350 9.100 9.300 34.800
Dube, Alicia 5 2009-02-20 8.600 8.800 8.750 8.400 34.000
Faynor, Claire 5 2009-02-20 8.850 8.150 7.975 8.250 32.125
Rodriguez, Samantha 5 2009-02-20 9.100 9.050 9.300 9.000 36.450
Torrence, Alexa 5 2009-02-20 8.600 8.200 8.600 8.900 34.000
Neiz Charest, Alex 6 2008-12-13 8.500 7.500 8.650 7.000 31.650
Sapak, Megan 6 2008-12-13 7.800 6.550 8.000 8.400 30.750
Bokina, Mackenzie 5 2008-11-15 8.000 8.300 8.100 7.250 29.900
Petit Larsen, Emma 4 2008-11-15 8.500 6.500 6.400 7.700 29.100
Policastro, Emily 4 2008-11-15 7.800 7.000 5.900 6.400 27.100
Richardson, Anna 4 2008-11-15 8.150 7.400 7.700 6.250 29.500
Rotatori, Emily 4 2008-11-15 8.100 6.250 6.000 6.750 27.100
Santos, Toni 4 2008-11-15 7.650 6.200 0.000 5.250 19.100
Threlfall, Rachel 7 2008-11-15 8.900 8.050 8.050 8.900 33.300
Valente, Marisa 4 2008-11-15 8.300 7.050 6.550 8.050 29.950
Vane, Amber 4 2008-11-15 8.175 7.800 7.950 8.050 31.975
Brazauskas, Alexa 6 2007-01-19 8.800 7.300 7.950 8.000 32.050
Charest, Alex 4 2007-01-19 9.200 8.300 9.025 8.850 35.375
Connolly, Aisling 4 2007-01-19 9.350 7.000 8.600 8.700 33.650
Fusco, Brianna 4 2007-01-19 8.550 7.100 6.900 8.700 31.250
Gibson, Georgia 6 2007-01-19 9.000 4.800 7.300 9.100 30.200
Gittings, Karin 6 2007-01-19 8.600 6.900 8.200 8.350 32.050
Goulet, Jaclyn 7 2007-01-19 8.850 8.400 7.450 8.450 33.150
Hunter, Jasmen 4 2007-01-19 8.800 6.700 7.200 8.100 30.800
Jack, Niara 7 2007-01-19 8.850 7.750 8.050 9.200 33.850
James, Erika 6 2007-01-19 8.450 3.800 7.800 8.000 28.050
LoPresti, Madyson 5 2007-01-19 8.550 8.550 9.150 8.900 35.150
McLean, Susan 5 2007-01-19 8.500 6.900 8.200 8.900 32.500
Tabler, Ellen 7 2007-01-19 9.000 8.750 8.350 8.200 34.300
Tobin, Rebecca 5 2007-01-19 8.150 8.850 8.400 8.600 34.000
Weber, Kaylee 4 2007-01-19 9.175 6.300 7.650 7.200 30.325
Wilde, Paige 7 2007-01-19 8.500 9.100 8.250 8.300 34.150
Wozniak, Madeline 4 2007-01-19 8.800 8.050 8.350 7.850 33.050
Yacovelli, Ellen 5 2007-01-19 8.800 8.650 9.050 9.150 35.650
 
Team Records
Level Vault Bars Beam Floor AA
3 28.400
2014-03-29
28.700
2017-02-23
27.200
2017-02-23
26.975
2014-12-12
110.200
2017-02-23
4 27.725
2007-01-19
2012-10-20
27.750
2010-12-03
26.975
2007-01-19
2016-02-20
27.400
2010-12-03
107.500
2007-01-19
5 27.250
2017-02-04
27.750
2010-01-27
27.800
2010-01-27
27.750
2012-11-10
108.150
2010-01-27
6 27.900
2014-02-21
26.950
2017-02-23
27.900
2014-02-21
27.700
2015-02-20
108.675
2014-02-21
7 28.425
2017-02-23
27.550
2014-02-21
27.675
2017-02-23
27.975
2014-02-21
109.425
2014-02-21
8 27.375
2010-01-27
25.650
2015-03-28
27.000
2010-01-27
27.200
2010-12-03
106.175
2010-01-27
9 26.550
2012-11-10
22.800
2012-01-13
25.000
2012-11-10
24.350
2012-01-13
95.925
2012-11-10
XB 27.975
2017-05-13
28.350
2015-12-11
28.700
2014-12-19
27.550
2016-05-15
111.750
2015-12-11
XS 28.300
2016-02-26
28.600
2017-02-23
28.100
2016-02-26
28.350
2016-04-30
112.000
2016-04-30
XG 27.350
2017-02-23
29.200
2017-02-23
28.825
2017-04-29
29.200
2017-02-23
113.550
2017-02-23
XP 28.200
2017-02-23
26.325
2017-04-29
27.650
2017-02-23
27.650
2017-04-29
108.975
2017-02-23
XD 9.200
2017-04-29
8.950
2017-02-23
9.400
2015-12-04
9.350
2017-05-20
36.375
2017-02-23
Individual Records
Level Vault Bars Beam Floor AA
3 9.500
Molly Clifford
9.750
Sophie Caron
9.350
Brooke Gutheil
9.275
Sophie Caron
37.325
Sophie Caron
4 9.450
Rebekah Ross
9.550
Jacquelin Berger
9.300
Samantha Rodriguez
9.300
Kyle Dandrea
36.450
Samantha Rodriguez
5 9.350
Ella Caron
9.300
Sofia Eschmann
Kaitlyn Furr
Megan Muller
9.350
Megan Muller
9.400
Victoria Gatzendorfer
Annabelle Montero
36.475
Megan Muller
6 9.625
Willow Martin
9.275
Julia Esteves
9.700
Annabelle Montero
9.475
Annabelle Montero
37.425
Willow Martin
7 9.650
AShleigh Dugan
9.400
Jenna Chasse
9.300
Jillian Nugai
9.500
Jessica Horn
36.950
Emily Baktis
8 9.250
Kathy Wiener
9.100
Madison Clark
9.325
Grace Cvanciger
9.250
Jenna Rinaldi
35.525
Grace Cvanciger
9 9.300
Grace Cvanciger
8.500
Grace Cvanciger
9.050
Madison Clark
9.300
Grace Cvanciger
35.425
Grace Cvanciger
XB 9.550
Scarlett Formato
9.600
Scarlett Formato
9.800
Kayla Kaether
9.350
Gabriella Argonese
Liliana Quill
37.350
Madyson Scioscia
XS 9.600
Paige Brandt
9.675
Juliana Harter
9.550
Sarah Kritemeyer
9.500
Gabriella Fernandez
Jillian Golden
Meghan Smith
37.600
Paige Brandt
XG 9.350
Julia Markward
9.850
Skylar Mugavin
9.650
Gabriella Fernandes
Juliana Harter
9.800
Skylar Mugavin
37.750
Juliana Harter
Skylar Mugavin
XP 9.500
Juliana Harter
9.100
Julia Markward
9.400
Juliana Scioscia
9.425
Marissa DiIulio
36.450
Juliana Harter
XD 9.200
Allyson Kenny
8.950
Allyson Kenny
9.400
Jenna Guerin
9.350
Allyson Kenny
36.375
Allyson Kenny
Gymnasts on 2017 America's Top 100
Name Level Vault Bars Beam Floor AA
Mugavin, Skylar XG 9.850 9.800
Gymnasts on 2014 America's Top 100
Name Level Vault Bars Beam Floor AA
Kaether, Kayla XB 9.800
Montero, Annabelle 6 9.700